Time;durP1;ratioP1;P1;durP2;ratioP2;P2;SDS_P1;SDS_P2;PMS_P1;PMS_P2;Temp;Humidity;BMP_temperature;BMP_pressure;BME280_temperature;BME280_humidity;BME280_pressure;Samples;Min_cycle;Max_cycle;Signal;HPM_P1;HPM_P2
2022/05/29 00:01:41;;;;;;;4.53;2.50;;;9.90;77.50;;;;;;5074652;28;20192;-63
2022/05/29 00:04:08;;;;;;;3.95;2.35;;;9.80;77.90;;;;;;5074538;28;20284;-64
2022/05/29 00:06:39;;;;;;;5.53;1.88;;;9.80;78.30;;;;;;5074706;28;20652;-64
2022/05/29 00:09:06;;;;;;;4.45;2.30;;;9.70;78.70;;;;;;5074589;28;20803;-63
2022/05/29 00:11:33;;;;;;;4.30;2.60;;;9.80;78.50;;;;;;5074697;28;20492;-63
2022/05/29 00:14:00;;;;;;;3.85;2.15;;;9.90;78.40;;;;;;5074582;28;20620;-64
2022/05/29 00:16:29;;;;;;;5.32;1.80;;;9.90;78.20;;;;;;5074176;28;20247;-64
2022/05/29 00:18:56;;;;;;;4.15;2.22;;;9.80;78.30;;;;;;5074444;28;20190;-64
2022/05/29 00:21:24;;;;;;;3.10;2.00;;;9.90;78.50;;;;;;5074577;28;20190;-64
2022/05/29 00:23:51;;;;;;;4.00;2.05;;;9.90;78.40;;;;;;5074388;28;20637;-63
2022/05/29 00:26:19;;;;;;;2.97;1.70;;;9.90;78.40;;;;;;5074400;28;20526;-63
2022/05/29 00:28:46;;;;;;;3.90;1.60;;;9.90;78.40;;;;;;5074087;28;20217;-65
2022/05/29 00:31:14;;;;;;;3.97;2.20;;;9.90;78.10;;;;;;5074035;28;20196;-63
2022/05/29 00:33:42;;;;;;;4.28;1.75;;;9.90;78.30;;;;;;5073955;28;20209;-63
2022/05/29 00:36:11;;;;;;;4.47;2.00;;;10.00;77.30;;;;;;5073526;28;20251;-64
2022/05/29 00:38:41;;;;;;;5.13;2.05;;;10.10;77.30;;;;;;5074271;28;20715;-63
2022/05/29 00:41:17;;;;;;;3.90;1.60;;;10.10;76.60;;;;;;5073527;28;20181;-64
2022/05/29 00:43:44;;;;;;;3.95;2.20;;;10.10;76.90;;;;;;5073893;28;20197;-63
2022/05/29 00:46:12;;;;;;;3.40;1.70;;;10.10;77.50;;;;;;5073861;28;20285;-63
2022/05/29 00:48:39;;;;;;;2.60;1.60;;;10.20;77.20;;;;;;5073455;28;20225;-64
2022/05/29 00:51:11;;;;;;;5.47;1.95;;;10.20;76.70;;;;;;5073783;28;20235;-63
2022/05/29 00:53:39;;;;;;;5.35;2.45;;;10.20;76.50;;;;;;5073939;28;20613;-63
2022/05/29 00:56:09;;;;;;;3.50;1.40;;;10.20;76.30;;;;;;5073561;28;20229;-63
2022/05/29 00:58:36;;;;;;;5.47;2.47;;;10.20;76.10;;;;;;5073549;28;20751;-64
2022/05/29 01:01:04;;;;;;;3.20;1.70;;;10.10;76.30;;;;;;5073440;28;20197;-64
2022/05/29 01:03:32;;;;;;;4.57;2.10;;;10.10;76.20;;;;;;5073611;28;20190;-64
2022/05/29 01:05:59;;;;;;;3.05;2.00;;;10.00;76.30;;;;;;5073528;28;20280;-64
2022/05/29 01:08:31;;;;;;;2.45;1.70;;;10.00;76.40;;;;;;5073855;28;20231;-64
2022/05/29 01:11:12;;;;;;;5.15;1.92;;;9.90;77.60;;;;;;5073517;28;20280;-64
2022/05/29 01:13:48;;;;;;;2.88;1.70;;;9.90;77.30;;;;;;5073287;28;20292;-63
2022/05/29 01:16:26;;;;;;;2.65;1.63;;;9.80;76.70;;;;;;5073666;28;20284;-63
2022/05/29 01:19:05;;;;;;;3.00;2.15;;;9.70;77.00;;;;;;5073273;28;20182;-65
2022/05/29 01:21:59;;;;;;;5.43;1.95;;;9.60;76.60;;;;;;5073042;28;20193;-67
2022/05/29 01:24:57;;;;;;;3.95;1.88;;;9.50;77.00;;;;;;5072986;28;20189;-66
2022/05/29 01:27:43;;;;;;;4.30;2.00;;;9.30;77.20;;;;;;5072910;28;20632;-64
2022/05/29 01:30:15;;;;;;;3.28;2.00;;;9.20;77.80;;;;;;5072760;28;20543;-64
2022/05/29 01:32:56;;;;;;;3.75;1.90;;;9.20;78.00;;;;;;5073016;28;20194;-64
2022/05/29 01:35:27;;;;;;;3.33;2.08;;;9.10;78.60;;;;;;5072714;28;20706;-65
2022/05/29 01:38:01;;;;;;;4.30;2.20;;;9.00;79.10;;;;;;5073124;28;20241;-64
2022/05/29 01:40:37;;;;;;;3.45;2.05;;;9.00;80.10;;;;;;5072851;28;20740;-64
2022/05/29 01:43:10;;;;;;;3.25;1.88;;;9.00;80.20;;;;;;5072766;28;20258;-63
2022/05/29 01:45:56;;;;;;;4.07;1.90;;;9.00;79.90;;;;;;5072784;28;20221;-63
2022/05/29 01:48:42;;;;;;;4.13;2.05;;;9.00;79.40;;;;;;5071901;28;20236;-64
2022/05/29 01:51:14;;;;;;;2.75;1.75;;;9.00;79.80;;;;;;5072469;28;20225;-63
2022/05/29 01:53:44;;;;;;;2.42;1.45;;;9.00;79.80;;;;;;5072739;28;20263;-66
2022/05/29 01:56:31;;;;;;;2.40;1.65;;;9.00;79.50;;;;;;5072633;28;20582;-63
2022/05/29 01:59:03;;;;;;;3.95;1.85;;;8.90;78.90;;;;;;5072383;28;20239;-63
2022/05/29 02:01:34;;;;;;;3.10;1.90;;;8.90;79.90;;;;;;5072479;28;20221;-64
2022/05/29 02:04:07;;;;;;;3.85;2.38;;;8.80;80.20;;;;;;5072482;28;20197;-64
2022/05/29 02:09:21;;;;;;;4.53;2.42;;;8.60;80.00;;;;;;5072361;28;20228;-63
2022/05/29 02:11:50;;;;;;;4.20;2.72;;;8.60;80.80;;;;;;5072778;28;20185;-63
2022/05/29 02:14:22;;;;;;;3.35;2.00;;;8.60;81.20;;;;;;5072627;28;20264;-63
2022/05/29 02:16:53;;;;;;;3.00;2.30;;;8.50;81.20;;;;;;5072516;28;20284;-64
2022/05/29 02:19:26;;;;;;;3.92;2.65;;;8.60;81.50;;;;;;5072771;28;20197;-63
2022/05/29 02:21:58;;;;;;;3.13;2.38;;;8.60;82.00;;;;;;5072699;28;20235;-64
2022/05/29 02:24:31;;;;;;;2.70;1.63;;;8.50;82.10;;;;;;5072442;28;20572;-63
2022/05/29 02:27:06;;;;;;;3.22;1.65;;;8.40;83.40;;;;;;5072587;28;20225;-63
2022/05/29 02:29:33;;;;;;;4.75;2.40;;;8.40;83.40;;;;;;5072475;28;20213;-64
2022/05/29 02:32:09;;;;;;;3.70;2.72;;;8.40;82.90;;;;;;5072349;28;20193;-63
2022/05/29 02:34:45;;;;;;;4.40;2.42;;;8.50;82.90;;;;;;5072562;28;20276;-63
2022/05/29 02:37:19;;;;;;;5.70;2.30;;;8.50;82.60;;;;;;5072390;28;20940;-63
2022/05/29 02:40:00;;;;;;;12.95;2.55;;;8.50;81.90;;;;;;5072176;28;20200;-63
2022/05/29 02:42:33;;;;;;;3.75;2.05;;;8.50;81.80;;;;;;5072420;28;20588;-64
2022/05/29 02:45:20;;;;;;;2.42;1.75;;;8.40;81.50;;;;;;5072458;28;20193;-63
2022/05/29 02:47:58;;;;;;;4.20;2.20;;;8.40;81.50;;;;;;5072100;28;20310;-63
2022/05/29 02:50:35;;;;;;;3.15;2.25;;;8.40;81.20;;;;;;5072296;28;20304;-66
2022/05/29 02:53:07;;;;;;;3.13;2.08;;;8.30;82.00;;;;;;5072098;28;20653;-64
2022/05/29 02:55:35;;;;;;;2.30;1.60;;;8.20;82.40;;;;;;5072168;28;20601;-63
2022/05/29 02:58:06;;;;;;;3.95;1.90;;;8.20;82.50;;;;;;5071977;28;20284;-63
2022/05/29 03:00:39;;;;;;;5.25;2.80;;;8.10;83.00;;;;;;5074608;28;20278;-63
2022/05/29 03:03:22;;;;;;;9.70;2.67;;;8.10;83.50;;;;;;5075816;28;20205;-63
2022/05/29 03:06:01;;;;;;;4.20;2.83;;;8.10;84.10;;;;;;5076018;28;20194;-63
2022/05/29 03:08:57;;;;;;;5.45;3.55;;;8.20;84.20;;;;;;5075714;28;20285;-64
2022/05/29 03:11:36;;;;;;;4.45;2.95;;;8.30;84.30;;;;;;5075995;28;20254;-64
2022/05/29 03:14:06;;;;;;;4.85;2.90;;;8.30;84.30;;;;;;5075642;28;20276;-63
2022/05/29 03:16:43;;;;;;;4.88;2.50;;;8.50;84.20;;;;;;5075375;28;20196;-63
2022/05/29 03:19:24;;;;;;;5.47;3.17;;;8.40;84.00;;;;;;5075529;28;20643;-63
2022/05/29 03:22:00;;;;;;;3.55;2.50;;;8.40;84.10;;;;;;5075743;28;20190;-63
2022/05/29 03:24:34;;;;;;;4.47;1.83;;;8.50;84.30;;;;;;5075561;28;20197;-64
2022/05/29 03:27:08;;;;;;;4.25;1.60;;;8.60;83.90;;;;;;5075589;28;20283;-64
2022/05/29 03:29:40;;;;;;;5.32;2.17;;;8.60;84.00;;;;;;5075297;28;20217;-63
2022/05/29 03:32:09;;;;;;;4.20;1.50;;;8.60;83.30;;;;;;5075522;28;20276;-63
2022/05/29 03:34:37;;;;;;;2.70;1.77;;;8.60;83.30;;;;;;5075429;28;20273;-63
2022/05/29 03:37:06;;;;;;;3.10;1.90;;;8.60;83.00;;;;;;5075116;28;20212;-63
2022/05/29 03:39:33;;;;;;;2.70;1.67;;;8.60;83.50;;;;;;5075484;28;20197;-63
2022/05/29 03:42:00;;;;;;;5.07;1.85;;;8.50;82.80;;;;;;5074919;28;20232;-63
2022/05/29 03:44:27;;;;;;;7.15;2.22;;;8.50;82.70;;;;;;5074970;28;20193;-64
2022/05/29 03:46:54;;;;;;;2.38;1.60;;;8.40;83.50;;;;;;5075148;28;20605;-63
2022/05/29 03:49:22;;;;;;;3.40;2.20;;;8.40;84.20;;;;;;5074482;28;20651;-63
2022/05/29 03:51:51;;;;;;;2.92;1.50;;;8.50;84.30;;;;;;5075168;28;20608;-63
2022/05/29 03:54:18;;;;;;;4.50;1.95;;;8.50;84.30;;;;;;5074979;28;20525;-63
2022/05/29 03:56:45;;;;;;;3.92;1.95;;;8.60;84.70;;;;;;5075162;28;20588;-63
2022/05/29 03:59:12;;;;;;;3.90;1.70;;;8.70;85.00;;;;;;5074758;28;20197;-63
2022/05/29 04:01:39;;;;;;;3.33;2.35;;;8.70;85.20;;;;;;5075130;28;20196;-63
2022/05/29 04:04:06;;;;;;;3.10;1.98;;;8.70;85.30;;;;;;5074871;28;20609;-63
2022/05/29 04:06:36;;;;;;;4.10;2.20;;;8.70;85.70;;;;;;5075084;28;20610;-63
2022/05/29 04:12:07;;;;;;;2.92;1.77;;;8.60;85.30;;;;;;5073938;28;20182;-63
2022/05/29 04:14:36;;;;;;;3.13;1.80;;;8.60;85.40;;;;;;5074790;28;20229;-63
2022/05/29 04:17:03;;;;;;;4.07;2.25;;;8.70;85.70;;;;;;5074690;28;20739;-63
2022/05/29 04:19:30;;;;;;;2.20;1.50;;;8.80;85.40;;;;;;5074893;28;20273;-63
2022/05/29 04:21:57;;;;;;;4.45;2.00;;;8.70;85.20;;;;;;5074415;28;20198;-64
2022/05/29 04:24:26;;;;;;;2.60;1.98;;;8.80;86.00;;;;;;5074810;28;20616;-63
2022/05/29 04:26:53;;;;;;;4.18;2.05;;;8.90;86.20;;;;;;5074966;28;20284;-63
2022/05/29 04:29:21;;;;;;;3.90;1.88;;;9.00;86.20;;;;;;5074622;28;20253;-63
2022/05/29 04:34:32;;;;;;;3.63;2.00;;;9.10;85.10;;;;;;5074815;28;20193;-63
2022/05/29 04:36:59;;;;;;;3.05;2.40;;;9.20;85.40;;;;;;5074826;28;20602;-63
2022/05/29 04:39:28;;;;;;;4.68;2.30;;;9.20;84.40;;;;;;5074512;28;20615;-64
2022/05/29 04:41:54;;;;;;;3.72;3.10;;;9.20;84.70;;;;;;5074592;28;20190;-64
2022/05/29 04:44:21;;;;;;;4.18;2.42;;;9.30;84.50;;;;;;5074381;28;20284;-63
2022/05/29 04:46:48;;;;;;;3.13;1.90;;;9.20;84.90;;;;;;5074575;28;20194;-63
2022/05/29 04:49:15;;;;;;;4.80;2.40;;;9.20;85.40;;;;;;5073908;28;20321;-64
2022/05/29 04:51:42;;;;;;;3.28;2.10;;;9.20;85.60;;;;;;5074232;28;20281;-64
2022/05/29 04:54:09;;;;;;;4.30;2.42;;;9.30;86.00;;;;;;5074230;28;20189;-64
2022/05/29 04:56:37;;;;;;;4.85;2.00;;;9.40;85.70;;;;;;5073922;28;20743;-63
2022/05/29 04:59:04;;;;;;;2.70;1.90;;;9.50;86.10;;;;;;5074142;28;20285;-63
2022/05/29 05:01:31;;;;;;;2.90;1.95;;;9.60;86.00;;;;;;5074124;28;20604;-64
2022/05/29 05:03:58;;;;;;;3.47;2.75;;;9.70;86.30;;;;;;5074091;28;20544;-64
2022/05/29 05:06:25;;;;;;;3.05;2.42;;;9.80;85.80;;;;;;5074159;28;20292;-64
2022/05/29 05:08:51;;;;;;;4.25;2.35;;;9.80;85.00;;;;;;5073934;28;20281;-63
2022/05/29 05:11:18;;;;;;;3.90;2.25;;;9.80;84.80;;;;;;5074004;28;20539;-63
2022/05/29 05:13:47;;;;;;;4.47;2.45;;;9.80;84.80;;;;;;5073740;28;20212;-63
2022/05/29 05:16:13;;;;;;;2.75;2.20;;;9.90;84.50;;;;;;5073545;28;20281;-63
2022/05/29 05:18:40;;;;;;;2.90;2.17;;;9.90;85.10;;;;;;5073765;28;20185;-63
2022/05/29 05:21:08;;;;;;;3.58;1.95;;;9.90;85.00;;;;;;5073707;28;20626;-64
2022/05/29 05:23:35;;;;;;;3.20;2.30;;;9.90;84.80;;;;;;5073710;28;20525;-63
2022/05/29 05:26:08;;;;;;;3.13;2.05;;;10.00;83.20;;;;;;5073506;28;20211;-64
2022/05/29 05:28:35;;;;;;;3.83;2.35;;;10.00;82.30;;;;;;5073631;28;20281;-63
2022/05/29 05:31:03;;;;;;;4.55;2.35;;;10.00;82.60;;;;;;5073454;28;20248;-63
2022/05/29 05:33:30;;;;;;;6.75;2.92;;;9.90;83.50;;;;;;5073392;28;20209;-64
2022/05/29 05:35:57;;;;;;;8.15;2.50;;;10.00;82.40;;;;;;5073389;28;20189;-63
2022/05/29 05:38:24;;;;;;;3.28;2.20;;;9.90;84.30;;;;;;5073659;28;20186;-63
2022/05/29 05:40:51;;;;;;;3.85;2.75;;;10.00;83.70;;;;;;5073543;28;20200;-63
2022/05/29 05:43:19;;;;;;;3.75;2.78;;;10.10;83.90;;;;;;5073462;28;20186;-63
2022/05/29 05:45:47;;;;;;;4.60;2.15;;;10.20;84.10;;;;;;5073330;28;20197;-63
2022/05/29 05:48:16;;;;;;;3.40;2.25;;;10.30;84.20;;;;;;5073096;28;20217;-63
2022/05/29 05:50:43;;;;;;;7.50;2.33;;;10.30;84.60;;;;;;5073201;28;20243;-63
2022/05/29 05:53:11;;;;;;;3.72;2.10;;;10.50;84.20;;;;;;5073308;28;20190;-63
2022/05/29 05:55:39;;;;;;;5.30;2.67;;;10.50;83.20;;;;;;5073233;28;20587;-63
2022/05/29 05:58:06;;;;;;;3.42;2.45;;;10.60;83.00;;;;;;5073094;28;20255;-64
2022/05/29 06:00:33;;;;;;;5.75;2.45;;;10.70;83.60;;;;;;5073340;28;20189;-64
2022/05/29 06:03:00;;;;;;;5.47;3.15;;;10.70;83.70;;;;;;5073212;28;20672;-64
2022/05/29 06:05:28;;;;;;;8.10;4.90;;;10.80;83.60;;;;;;5073076;28;20280;-64
2022/05/29 06:07:55;;;;;;;12.13;4.05;;;10.90;82.40;;;;;;5073037;28;20296;-64
2022/05/29 06:10:22;;;;;;;6.88;3.65;;;10.90;82.90;;;;;;5072865;28;20278;-63
2022/05/29 06:12:49;;;;;;;7.10;3.47;;;11.00;82.30;;;;;;5072989;28;20211;-63
2022/05/29 06:15:17;;;;;;;5.75;2.88;;;11.00;82.00;;;;;;5072933;28;20706;-63
2022/05/29 06:17:43;;;;;;;5.88;2.85;;;11.10;81.40;;;;;;5072877;28;20632;-63
2022/05/29 06:20:12;;;;;;;6.18;2.53;;;11.20;81.00;;;;;;5072815;28;20197;-64
2022/05/29 06:22:42;;;;;;;5.30;2.00;;;11.20;81.00;;;;;;5073061;28;20221;-63
2022/05/29 06:25:11;;;;;;;3.13;2.20;;;11.30;80.50;;;;;;5073049;28;20284;-63
2022/05/29 06:27:39;;;;;;;5.10;1.98;;;11.40;80.20;;;;;;5072863;28;20189;-64
2022/05/29 06:30:08;;;;;;;3.85;1.92;;;11.40;80.60;;;;;;5072766;28;20213;-64
2022/05/29 06:32:35;;;;;;;7.05;2.17;;;11.50;80.40;;;;;;5072749;28;20189;-64
2022/05/29 06:35:03;;;;;;;5.72;2.65;;;11.50;80.00;;;;;;5074835;28;20243;-64
2022/05/29 06:37:31;;;;;;;7.72;2.13;;;11.60;79.70;;;;;;5076964;28;20540;-64
2022/05/29 06:40:00;;;;;;;5.85;2.47;;;11.60;79.00;;;;;;5076983;28;20194;-64
2022/05/29 06:42:27;;;;;;;5.15;2.70;;;11.60;78.90;;;;;;5076394;28;20314;-65
2022/05/29 06:44:54;;;;;;;4.93;2.60;;;11.50;79.60;;;;;;5076463;28;20190;-64
2022/05/29 06:47:21;;;;;;;3.85;2.50;;;11.50;80.00;;;;;;5076429;28;20271;-64
2022/05/29 06:49:49;;;;;;;7.90;2.13;;;11.60;80.60;;;;;;5076339;28;20312;-64
2022/05/29 06:52:16;;;;;;;4.68;2.50;;;11.70;81.00;;;;;;5076513;28;20187;-64
2022/05/29 06:54:43;;;;;;;3.85;2.28;;;11.80;81.10;;;;;;5076331;28;20525;-64
2022/05/29 06:57:12;;;;;;;2.97;2.13;;;11.80;80.70;;;;;;5076571;28;20185;-64
2022/05/29 07:07:51;;;;;;;5.32;2.42;;;12.00;81.00;;;;;;5076149;28;20189;-63
2022/05/29 07:10:18;;;;;;;4.40;2.65;;;12.10;81.50;;;;;;5076350;28;20314;-63
2022/05/29 07:12:47;;;;;;;4.27;2.27;;;12.20;81.50;;;;;;5076079;28;20193;-64
2022/05/29 07:15:15;;;;;;;3.50;2.87;;;12.30;81.00;;;;;;5076301;28;20476;-63
2022/05/29 07:17:42;;;;;;;7.55;3.05;;;12.30;80.70;;;;;;5076113;28;20514;-64
2022/05/29 07:20:10;;;;;;;4.35;2.80;;;12.40;80.90;;;;;;5075956;28;20208;-63
2022/05/29 07:22:40;;;;;;;5.10;2.13;;;12.50;81.10;;;;;;5075736;28;20281;-64
2022/05/29 07:25:08;;;;;;;5.70;3.30;;;12.60;80.60;;;;;;5075824;28;20479;-63
2022/05/29 07:27:35;;;;;;;3.57;2.47;;;12.70;79.80;;;;;;5075751;28;20435;-64
2022/05/29 07:30:03;;;;;;;5.60;2.03;;;12.70;79.60;;;;;;5075759;28;20560;-64
2022/05/29 07:32:31;;;;;;;4.23;2.57;;;12.80;80.50;;;;;;5075813;28;20446;-64
2022/05/29 07:34:58;;;;;;;6.33;2.43;;;12.90;80.80;;;;;;5075828;28;20432;-63
2022/05/29 07:37:26;;;;;;;3.57;2.37;;;13.00;80.00;;;;;;5075866;28;20526;-66
2022/05/29 07:39:54;;;;;;;5.40;2.20;;;13.00;78.90;;;;;;5075704;28;20440;-64
2022/05/29 07:45:11;;;;;;;4.13;2.47;;;13.00;79.90;;;;;;5075509;28;20418;-64
2022/05/29 07:47:40;;;;;;;3.60;2.50;;;13.20;80.40;;;;;;5074559;28;20463;-64
2022/05/29 07:50:10;;;;;;;4.20;3.00;;;13.20;79.70;;;;;;5075568;28;20468;-64
2022/05/29 07:52:37;;;;;;;4.93;2.87;;;13.30;79.00;;;;;;5075757;28;20780;-63
2022/05/29 07:55:05;;;;;;;5.40;3.43;;;13.40;79.00;;;;;;5075502;28;20474;-64
2022/05/29 07:57:32;;;;;;;4.20;2.70;;;13.50;79.40;;;;;;5075367;28;20526;-64
2022/05/29 07:59:59;;;;;;;4.10;3.27;;;13.70;80.00;;;;;;5075403;28;20534;-64
2022/05/29 08:02:30;;;;;;;5.50;2.90;;;13.80;80.20;;;;;;5075418;28;20526;-64
2022/05/29 08:05:00;;;;;;;7.23;3.63;;;13.90;79.80;;;;;;5075444;28;20447;-64
2022/05/29 08:07:27;;;;;;;5.47;2.63;;;14.00;78.60;;;;;;5075040;28;20446;-64
2022/05/29 08:09:54;;;;;;;7.10;2.70;;;14.10;77.10;;;;;;5075254;28;20436;-64
2022/05/29 08:12:21;;;;;;;5.73;2.60;;;14.10;76.40;;;;;;5074968;28;20478;-63
2022/05/29 08:14:48;;;;;;;3.90;1.97;;;14.10;75.80;;;;;;5075158;28;20439;-65
2022/05/29 08:17:15;;;;;;;5.33;2.60;;;14.10;75.10;;;;;;5074997;28;20436;-63
2022/05/29 08:19:43;;;;;;;4.33;2.80;;;14.10;75.10;;;;;;5074738;28;20847;-63
2022/05/29 08:22:10;;;;;;;4.40;2.63;;;14.20;74.30;;;;;;5074773;28;20450;-63
2022/05/29 08:32:59;;;;;;;3.60;2.37;;;14.40;75.00;;;;;;5074746;28;20455;-64
2022/05/29 08:35:27;;;;;;;3.03;2.17;;;14.50;73.40;;;;;;5074667;28;20436;-63
2022/05/29 08:37:55;;;;;;;8.87;2.43;;;14.50;73.90;;;;;;5074743;28;20441;-63
2022/05/29 08:40:23;;;;;;;2.77;2.13;;;14.60;72.80;;;;;;5074682;28;20439;-63
2022/05/29 08:42:50;;;;;;;4.70;2.30;;;14.60;72.20;;;;;;5074674;28;20479;-63
2022/05/29 08:45:19;;;;;;;3.30;1.83;;;14.50;72.40;;;;;;5074587;28;20446;-65
2022/05/29 08:47:47;;;;;;;4.37;2.23;;;14.50;72.80;;;;;;5073797;28;20468;-63
2022/05/29 08:50:21;;;;;;;6.47;3.50;;;14.60;73.70;;;;;;5074360;28;20480;-64
2022/05/29 08:53:00;;;;;;;3.80;2.37;;;14.80;73.30;;;;;;5074494;28;20527;-63
2022/05/29 08:55:30;;;;;;;9.20;3.30;;;15.20;73.90;;;;;;5074250;28;20452;-64
2022/05/29 08:58:18;;;;;;;2.77;1.87;;;15.60;74.10;;;;;;5073912;28;20931;-66
2022/05/29 09:00:51;;;;;;;4.57;2.57;;;15.70;71.50;;;;;;5074197;28;20494;-64
2022/05/29 09:03:40;;;;;;;4.70;2.30;;;15.90;69.30;;;;;;5074282;28;20527;-64
2022/05/29 09:06:11;;;;;;;4.73;2.20;;;16.00;68.40;;;;;;5074118;28;20906;-64
2022/05/29 09:08:44;;;;;;;3.97;2.17;;;16.10;67.10;;;;;;5074217;28;20489;-64
2022/05/29 09:11:16;;;;;;;6.50;2.30;;;16.00;65.00;;;;;;5073949;28;20479;-64
2022/05/29 09:13:49;;;;;;;3.90;2.03;;;16.00;64.10;;;;;;5073902;28;20926;-63
2022/05/29 09:16:18;;;;;;;5.10;2.10;;;16.00;62.90;;;;;;5073564;28;20440;-65
2022/05/29 09:19:03;;;;;;;3.53;2.20;;;16.00;63.60;;;;;;5074021;28;20832;-64
2022/05/29 09:21:38;;;;;;;4.03;2.10;;;16.10;63.20;;;;;;5073760;28;20447;-64
2022/05/29 09:24:14;;;;;;;4.27;2.20;;;16.30;63.00;;;;;;5073373;28;20906;-63
2022/05/29 09:26:41;;;;;;;9.63;2.23;;;16.50;61.60;;;;;;5073796;28;20443;-63
2022/05/29 09:29:11;;;;;;;5.43;2.00;;;16.80;61.70;;;;;;5073147;28;20447;-64
2022/05/29 09:31:39;;;;;;;3.40;2.40;;;17.00;62.00;;;;;;5073510;28;20484;-64
2022/05/29 09:34:06;;;;;;;4.37;2.63;;;17.40;61.10;;;;;;5073397;28;20523;-64
2022/05/29 09:36:52;;;;;;;4.83;2.63;;;17.70;62.10;;;;;;5073508;28;20450;-64
2022/05/29 09:39:28;;;;;;;4.10;1.90;;;17.90;58.30;;;;;;5073458;28;20477;-64
2022/05/29 09:42:02;;;;;;;3.53;2.20;;;18.20;58.20;;;;;;5072955;28;20980;-64
2022/05/29 09:44:29;;;;;;;5.00;2.30;;;18.40;55.10;;;;;;5073377;28;20848;-64
2022/05/29 09:49:40;;;;;;;2.90;1.90;;;18.60;54.90;;;;;;5073416;28;20519;-65
2022/05/29 09:49:45;;;;;;;7.10;1.73;;;18.70;55.50;;;;;;5072920;28;20526;-65
2022/05/29 09:52:15;;;;;;;4.37;2.33;;;18.80;54.00;;;;;;5073038;28;20480;-64
2022/05/29 09:54:51;;;;;;;4.90;2.30;;;18.80;53.70;;;;;;5073123;28;20526;-64
2022/05/29 09:57:23;;;;;;;5.10;2.30;;;18.80;53.20;;;;;;5073273;28;20797;-64
2022/05/29 09:59:52;;;;;;;7.63;2.50;;;18.40;51.00;;;;;;5073171;28;20440;-64
2022/05/29 10:02:28;;;;;;;4.33;1.93;;;18.30;53.90;;;;;;5073188;28;20785;-64
2022/05/29 10:04:59;;;;;;;3.60;1.73;;;18.50;54.50;;;;;;5073153;28;20440;-65
2022/05/29 10:07:36;;;;;;;3.87;1.57;;;18.60;53.10;;;;;;5073038;28;20468;-64
2022/05/29 10:10:06;;;;;;;4.00;2.17;;;18.80;54.30;;;;;;5072415;28;20435;-64
2022/05/29 10:12:38;;;;;;;4.47;2.50;;;19.10;51.20;;;;;;5072627;28;20526;-64
2022/05/29 10:15:12;;;;;;;7.53;2.43;;;19.40;53.40;;;;;;5073039;28;20505;-64
2022/05/29 10:17:40;;;;;;;3.47;1.57;;;19.40;49.00;;;;;;5072979;28;20447;-64
2022/05/29 10:20:26;;;;;;;6.20;2.10;;;19.50;50.00;;;;;;5072893;28;20551;-64
2022/05/29 10:22:55;;;;;;;5.47;1.97;;;19.60;49.90;;;;;;5073022;28;20436;-64
2022/05/29 10:25:26;;;;;;;3.43;1.80;;;19.90;50.00;;;;;;5073131;28;20436;-64
2022/05/29 10:27:55;;;;;;;5.63;1.67;;;20.00;49.10;;;;;;5072862;28;20440;-64
2022/05/29 10:30:37;;;;;;;4.30;1.57;;;20.10;48.70;;;;;;5072851;28;20436;-65
2022/05/29 10:33:08;;;;;;;3.90;1.67;;;20.20;48.40;;;;;;5072767;28;20447;-64
2022/05/29 10:35:37;;;;;;;7.50;1.97;;;20.10;45.30;;;;;;5072596;28;20440;-64
2022/05/29 10:38:26;;;;;;;2.80;1.70;;;19.80;46.00;;;;;;5072736;28;20437;-64
2022/05/29 10:40:56;;;;;;;5.40;1.80;;;19.80;47.70;;;;;;5072941;28;20936;-64
2022/05/29 10:43:37;;;;;;;8.03;1.70;;;19.70;47.00;;;;;;5072650;28;20505;-64
2022/05/29 10:46:06;;;;;;;4.90;1.87;;;19.70;47.40;;;;;;5072678;28;20440;-64
2022/05/29 10:49:00;;;;;;;4.17;1.97;;;19.60;47.00;;;;;;5072243;28;20563;-64
2022/05/29 10:51:39;;;;;;;5.70;1.93;;;19.70;46.60;;;;;;5072316;28;20501;-65
2022/05/29 10:54:26;;;;;;;3.67;1.77;;;19.70;46.30;;;;;;5072644;28;20487;-64
2022/05/29 10:57:10;;;;;;;4.70;1.67;;;19.70;46.70;;;;;;5072968;28;20779;-64
2022/05/29 11:00:07;;;;;;;4.77;2.00;;;19.80;47.70;;;;;;5072672;28;20533;-65
2022/05/29 11:06:08;;;;;;;5.20;1.60;;;20.30;47.00;;;;;;5072479;28;20424;-64
2022/05/29 11:08:45;;;;;;;4.50;1.20;;;20.40;45.10;;;;;;5072308;28;20953;-64
2022/05/29 11:11:24;;;;;;;6.70;1.50;;;20.50;42.80;;;;;;5072401;28;20483;-64
2022/05/29 11:14:15;;;;;;;2.93;1.50;;;20.60;44.10;;;;;;5072466;28;20475;-64
2022/05/29 11:16:54;;;;;;;4.00;1.60;;;20.80;46.60;;;;;;5063650;28;20494;-64
2022/05/29 11:19:59;;;;;;;3.50;1.47;;;20.90;45.10;;;;;;5072461;28;20451;-64
2022/05/29 11:22:36;;;;;;;4.27;1.63;;;20.90;45.00;;;;;;5076051;28;20428;-66
2022/05/29 11:25:14;;;;;;;3.63;1.40;;;21.00;43.50;;;;;;5076342;28;20435;-65
2022/05/29 11:28:17;;;;;;;2.93;1.30;;;21.00;44.00;;;;;;5076044;28;20467;-64
2022/05/29 11:31:06;;;;;;;2.63;0.93;;;20.90;43.10;;;;;;5058066;28;20435;-64
2022/05/29 11:33:46;;;;;;;3.33;1.13;;;20.80;42.90;;;;;;5075888;28;20822;-64
2022/05/29 11:36:32;;;;;;;6.87;1.57;;;20.70;42.90;;;;;;5076153;28;20837;-64
2022/05/29 11:39:28;;;;;;;3.70;1.73;;;20.70;43.50;;;;;;5075751;28;20463;-65
2022/05/29 11:42:01;;;;;;;2.97;1.40;;;20.90;43.90;;;;;;5075040;28;20448;-65
2022/05/29 11:44:36;;;;;;;3.90;1.43;;;21.00;44.20;;;;;;5075717;28;20518;-64
2022/05/29 11:52:51;;;;;;;3.30;1.30;;;21.30;42.30;;;;;;5075083;28;20486;-64
2022/05/29 11:55:20;;;;;;;5.50;1.00;;;21.20;41.60;;;;;;5075516;28;20525;-64
2022/05/29 11:57:53;;;;;;;5.53;1.27;;;21.20;40.40;;;;;;5075423;28;20443;-65
2022/05/29 12:00:34;;;;;;;3.73;1.27;;;21.00;40.50;;;;;;5075127;28;20522;-64
2022/05/29 12:03:14;;;;;;;5.33;1.30;;;20.90;41.50;;;;;;5075369;28;20440;-64
2022/05/29 12:05:46;;;;;;;2.77;1.10;;;20.80;41.80;;;;;;5075337;28;20443;-64
2022/05/29 12:08:17;;;;;;;3.60;1.03;;;20.80;41.70;;;;;;5075320;28;20527;-64
2022/05/29 12:10:56;;;;;;;4.37;1.00;;;20.80;43.70;;;;;;5075150;28;20974;-64
2022/05/29 12:13:31;;;;;;;2.87;1.40;;;20.90;45.50;;;;;;5074974;28;20515;-64
2022/05/29 12:16:01;;;;;;;3.30;1.30;;;21.10;45.30;;;;;;5075406;28;20509;-64
2022/05/29 12:18:38;;;;;;;2.40;1.20;;;21.30;44.30;;;;;;5075254;28;20437;-64
2022/05/29 12:21:06;;;;;;;6.03;1.10;;;21.50;43.50;;;;;;5075039;28;20440;-64
2022/05/29 12:23:38;;;;;;;3.00;1.03;;;21.60;41.20;;;;;;5074463;28;20763;-64
2022/05/29 12:26:11;;;;;;;2.23;0.97;;;21.50;40.30;;;;;;5074784;28;20448;-64
2022/05/29 12:28:44;;;;;;;7.03;1.57;;;21.60;40.00;;;;;;5074415;28;20525;-64
2022/05/29 12:31:18;;;;;;;4.20;1.10;;;21.70;40.70;;;;;;5074425;28;20444;-64
2022/05/29 12:33:47;;;;;;;2.67;0.93;;;21.70;38.00;;;;;;5073755;28;20519;-64
2022/05/29 12:36:23;;;;;;;3.20;1.03;;;21.70;38.80;;;;;;5074469;28;20440;-64
2022/05/29 12:39:16;;;;;;;3.73;1.20;;;21.70;37.40;;;;;;5074262;28;20886;-64
2022/05/29 12:42:14;;;;;;;3.03;1.03;;;21.60;36.10;;;;;;5074291;28;20485;-64
2022/05/29 12:45:28;;;;;;;1.80;0.90;;;21.40;36.10;;;;;;5073898;28;20427;-64
2022/05/29 12:48:25;;;;;;;3.33;1.17;;;21.30;37.30;;;;;;5063593;28;20484;-66
2022/05/29 12:51:16;;;;;;;2.40;0.93;;;21.30;39.20;;;;;;5074747;28;20436;-64
2022/05/29 12:54:08;;;;;;;2.80;1.20;;;21.40;39.50;;;;;;5074348;28;20444;-64
2022/05/29 12:57:24;;;;;;;3.40;1.40;;;21.50;38.80;;;;;;5074350;28;20494;-65
2022/05/29 13:00:23;;;;;;;2.20;1.00;;;21.50;38.00;;;;;;5073921;28;20527;-64
2022/05/29 13:03:23;;;;;;;3.40;1.10;;;21.50;37.20;;;;;;5074283;28;20432;-64
2022/05/29 13:06:07;;;;;;;2.30;1.00;;;21.60;36.60;;;;;;5065173;28;20476;-64
2022/05/29 13:09:10;;;;;;;2.47;0.80;;;21.60;36.60;;;;;;5073723;28;20987;-64
2022/05/29 13:11:42;;;;;;;2.40;0.90;;;21.80;37.20;;;;;;5073971;28;20888;-64
2022/05/29 13:14:09;;;;;;;4.10;1.20;;;21.80;36.70;;;;;;5073916;28;20482;-64
2022/05/29 13:16:40;;;;;;;3.30;1.10;;;21.90;37.00;;;;;;5073835;28;20443;-64
2022/05/29 13:19:17;;;;;;;4.97;1.20;;;22.00;37.40;;;;;;5073974;28;20851;-64
2022/05/29 13:22:02;;;;;;;2.40;0.80;;;21.90;37.70;;;;;;5073908;28;20483;-64
2022/05/29 13:24:36;;;;;;;2.10;1.00;;;21.70;36.90;;;;;;5073865;28;20910;-64
2022/05/29 13:27:32;;;;;;;3.17;1.20;;;21.60;36.10;;;;;;5073720;28;20444;-64
2022/05/29 13:30:02;;;;;;;2.37;1.00;;;21.40;35.90;;;;;;5073014;28;20436;-64
2022/05/29 13:32:30;;;;;;;2.30;0.93;;;21.20;34.90;;;;;;5073787;28;20484;-64
2022/05/29 13:35:30;;;;;;;3.60;1.07;;;21.20;35.40;;;;;;5073643;28;20527;-64
2022/05/29 13:37:58;;;;;;;2.50;0.90;;;21.20;35.80;;;;;;5073471;28;20514;-64
2022/05/29 13:40:45;;;;;;;2.77;1.17;;;21.00;35.90;;;;;;5073524;28;20439;-64
2022/05/29 13:43:38;;;;;;;2.60;0.87;;;20.90;36.80;;;;;;5073194;28;20431;-64
2022/05/29 13:46:20;;;;;;;6.63;1.03;;;20.60;36.20;;;;;;5073152;28;20439;-64
2022/05/29 13:49:07;;;;;;;3.63;1.60;;;20.40;37.00;;;;;;5073120;28;20542;-64
2022/05/29 13:51:41;;;;;;;4.27;1.53;;;20.10;37.60;;;;;;5073411;28;20440;-64
2022/05/29 13:54:22;;;;;;;4.37;1.20;;;19.80;37.00;;;;;;5073411;28;20444;-64
2022/05/29 13:56:55;;;;;;;4.80;1.33;;;19.60;36.60;;;;;;5073262;28;20526;-64
2022/05/29 14:05:16;;;;;;;2.37;1.27;;;18.80;37.30;;;;;;5046704;28;20748;-64